Kissimmee Gateway Airport
KISM : now visible

Airfield :











YOU CAN JOIN US ON...

 
LOGIN :

Register | Disclaimer

   EN    FR    IT 

 









Legend :    VFR   Marginal VFR   IFR   Intensive IFR   Very Intensive IFR
Visi :
Ceiling :
>= 8 km
>= 3000ft
5 to 8 km
1000 to 3000 ft
1500m to 5 km
500 to 1000 ft
800 to 1500m
200 to 500 ft
< 800m
< 200 ft
Symbols :   Thunderstorms  Fog  Heavy snow  Heavy precipitations  Wind > 20 kt






- Airport Elevation : 82 ft


KISM - Kissimmee Gateway

CURRENT METAR :
  • 190156Z 00000KT 10SM CLR 14/12 A2987 RMK AO2 SLP115 T01440122 PNO $

EXPIRED METARs :
  • 190056Z 29004KT 10SM CLR 17/13 A2987 RMK AO2 SLP115 T01670128 PNO $
  • 182356Z 30005KT 10SM CLR 18/13 A2986 RMK AO2 SLP110 6//// T01780128 10233 20178 53015 PNO $

TAF KISM
Valid from the 19 at 00:00 until the 20 at 00:00 UTC


182329Z 1900/1924 29006KT P6SM FEW035 SCT250
FM190900 28003KT P6SM SCT030 BKN250
TEMPO 1909/1912 5SM BR SCT025 BKN250
FM191300 31007KT P6SM FEW035 SCT250
FM191800 28012KT P6SM FEW030 SCT250



MET'MAP, your aeronautical weather chart ! - Copyright ORBIFLY December 2007 - Disclaimer

ORBIFLY MET'MAP TEAM :

Programming & Development : Alexandra Zaïnal
Concept & Development : Baudouin d'Aumeries
Co-Development & Prog : Marc-Olivier Méhu
Technical & hardware support : Manuel Goepfert

Contact : metmap@orbifly.com




SOURCES & CREDITS :

   NOAA       Earth
Advisory